sensor_id;sensor_type;location;lat;lon;timestamp;P1;durP1;ratioP1;P2;durP2;ratioP2
51664;SDS011;37751;52.408;12.536;2022-07-04T00:00:14;10.65;;;2.38;;
51664;SDS011;37751;52.408;12.536;2022-07-04T00:02:43;3.72;;;2.40;;
51664;SDS011;37751;52.408;12.536;2022-07-04T00:05:12;2.47;;;1.85;;
51664;SDS011;37751;52.408;12.536;2022-07-04T00:07:40;3.25;;;2.08;;
51664;SDS011;37751;52.408;12.536;2022-07-04T00:10:10;7.32;;;2.58;;
51664;SDS011;37751;52.408;12.536;2022-07-04T00:12:38;3.10;;;1.85;;
51664;SDS011;37751;52.408;12.536;2022-07-04T00:15:06;7.70;;;2.33;;
51664;SDS011;37751;52.408;12.536;2022-07-04T00:17:34;9.95;;;2.28;;
51664;SDS011;37751;52.408;12.536;2022-07-04T00:20:02;2.40;;;1.77;;
51664;SDS011;37751;52.408;12.536;2022-07-04T00:22:30;2.60;;;1.90;;
51664;SDS011;37751;52.408;12.536;2022-07-04T00:24:58;2.50;;;2.03;;
51664;SDS011;37751;52.408;12.536;2022-07-04T00:27:24;3.30;;;1.50;;
51664;SDS011;37751;52.408;12.536;2022-07-04T00:29:51;2.75;;;1.77;;
51664;SDS011;37751;52.408;12.536;2022-07-04T00:32:18;4.93;;;2.00;;
51664;SDS011;37751;52.408;12.536;2022-07-04T00:34:46;7.53;;;2.22;;
51664;SDS011;37751;52.408;12.536;2022-07-04T00:37:13;6.28;;;2.25;;
51664;SDS011;37751;52.408;12.536;2022-07-04T00:39:40;9.90;;;1.75;;
51664;SDS011;37751;52.408;12.536;2022-07-04T00:42:08;3.65;;;2.00;;
51664;SDS011;37751;52.408;12.536;2022-07-04T00:44:35;5.85;;;2.40;;
51664;SDS011;37751;52.408;12.536;2022-07-04T00:47:06;3.50;;;2.10;;
51664;SDS011;37751;52.408;12.536;2022-07-04T00:49:34;3.83;;;2.42;;
51664;SDS011;37751;52.408;12.536;2022-07-04T00:52:01;3.53;;;2.63;;
51664;SDS011;37751;52.408;12.536;2022-07-04T00:54:29;9.15;;;2.92;;
51664;SDS011;37751;52.408;12.536;2022-07-04T00:56:58;15.90;;;2.60;;
51664;SDS011;37751;52.408;12.536;2022-07-04T00:59:26;7.60;;;2.45;;
51664;SDS011;37751;52.408;12.536;2022-07-04T01:01:54;6.60;;;2.78;;
51664;SDS011;37751;52.408;12.536;2022-07-04T01:04:22;9.07;;;2.83;;
51664;SDS011;37751;52.408;12.536;2022-07-04T01:06:49;5.93;;;2.95;;
51664;SDS011;37751;52.408;12.536;2022-07-04T01:09:16;7.18;;;2.92;;
51664;SDS011;37751;52.408;12.536;2022-07-04T01:11:43;6.43;;;3.13;;
51664;SDS011;37751;52.408;12.536;2022-07-04T01:14:10;6.45;;;2.78;;
51664;SDS011;37751;52.408;12.536;2022-07-04T01:16:36;4.85;;;3.13;;
51664;SDS011;37751;52.408;12.536;2022-07-04T01:19:03;5.60;;;2.55;;
51664;SDS011;37751;52.408;12.536;2022-07-04T01:21:31;3.22;;;2.97;;
51664;SDS011;37751;52.408;12.536;2022-07-04T01:23:59;3.67;;;3.13;;
51664;SDS011;37751;52.408;12.536;2022-07-04T01:26:29;4.40;;;2.78;;
51664;SDS011;37751;52.408;12.536;2022-07-04T01:28:56;4.13;;;3.10;;
51664;SDS011;37751;52.408;12.536;2022-07-04T01:31:23;6.95;;;3.35;;
51664;SDS011;37751;52.408;12.536;2022-07-04T01:33:50;5.15;;;3.28;;
51664;SDS011;37751;52.408;12.536;2022-07-04T01:36:17;6.65;;;3.40;;
51664;SDS011;37751;52.408;12.536;2022-07-04T01:38:44;4.57;;;3.00;;
51664;SDS011;37751;52.408;12.536;2022-07-04T01:41:11;3.95;;;3.08;;
51664;SDS011;37751;52.408;12.536;2022-07-04T01:43:38;5.72;;;3.10;;
51664;SDS011;37751;52.408;12.536;2022-07-04T01:46:05;4.20;;;2.75;;
51664;SDS011;37751;52.408;12.536;2022-07-04T01:48:31;6.22;;;2.90;;
51664;SDS011;37751;52.408;12.536;2022-07-04T01:50:58;5.68;;;3.03;;
51664;SDS011;37751;52.408;12.536;2022-07-04T01:53:25;3.80;;;3.28;;
51664;SDS011;37751;52.408;12.536;2022-07-04T01:55:52;7.65;;;2.72;;
51664;SDS011;37751;52.408;12.536;2022-07-04T01:58:19;3.90;;;2.60;;
51664;SDS011;37751;52.408;12.536;2022-07-04T02:00:45;6.63;;;2.97;;
51664;SDS011;37751;52.408;12.536;2022-07-04T02:03:30;5.25;;;2.80;;
51664;SDS011;37751;52.408;12.536;2022-07-04T02:05:57;3.70;;;3.00;;
51664;SDS011;37751;52.408;12.536;2022-07-04T02:08:24;3.35;;;3.05;;
51664;SDS011;37751;52.408;12.536;2022-07-04T02:11:10;3.95;;;3.08;;
51664;SDS011;37751;52.408;12.536;2022-07-04T02:13:37;3.47;;;3.10;;
51664;SDS011;37751;52.408;12.536;2022-07-04T02:16:04;3.75;;;3.00;;
51664;SDS011;37751;52.408;12.536;2022-07-04T02:18:31;3.83;;;2.78;;
51664;SDS011;37751;52.408;12.536;2022-07-04T02:20:58;6.28;;;2.97;;
51664;SDS011;37751;52.408;12.536;2022-07-04T02:23:24;7.65;;;3.25;;
51664;SDS011;37751;52.408;12.536;2022-07-04T02:25:51;8.60;;;3.63;;
51664;SDS011;37751;52.408;12.536;2022-07-04T02:28:18;5.18;;;3.20;;
51664;SDS011;37751;52.408;12.536;2022-07-04T02:30:45;3.53;;;2.72;;
51664;SDS011;37751;52.408;12.536;2022-07-04T02:33:12;4.10;;;2.85;;
51664;SDS011;37751;52.408;12.536;2022-07-04T02:35:39;4.15;;;2.80;;
51664;SDS011;37751;52.408;12.536;2022-07-04T02:38:05;4.03;;;3.00;;
51664;SDS011;37751;52.408;12.536;2022-07-04T02:40:32;6.07;;;2.80;;
51664;SDS011;37751;52.408;12.536;2022-07-04T02:42:59;4.07;;;3.00;;
51664;SDS011;37751;52.408;12.536;2022-07-04T02:45:25;6.60;;;3.22;;
51664;SDS011;37751;52.408;12.536;2022-07-04T02:47:52;8.23;;;3.38;;
51664;SDS011;37751;52.408;12.536;2022-07-04T02:50:19;5.15;;;3.17;;
51664;SDS011;37751;52.408;12.536;2022-07-04T02:52:46;6.65;;;3.53;;
51664;SDS011;37751;52.408;12.536;2022-07-04T02:55:12;5.50;;;2.83;;
51664;SDS011;37751;52.408;12.536;2022-07-04T02:57:39;5.47;;;3.05;;
51664;SDS011;37751;52.408;12.536;2022-07-04T03:00:06;4.55;;;2.90;;
51664;SDS011;37751;52.408;12.536;2022-07-04T03:02:34;5.18;;;2.60;;
51664;SDS011;37751;52.408;12.536;2022-07-04T03:05:01;3.00;;;2.70;;
51664;SDS011;37751;52.408;12.536;2022-07-04T03:07:27;2.85;;;2.65;;
51664;SDS011;37751;52.408;12.536;2022-07-04T03:09:54;4.85;;;2.97;;
51664;SDS011;37751;52.408;12.536;2022-07-04T03:12:21;4.85;;;2.65;;
51664;SDS011;37751;52.408;12.536;2022-07-04T03:14:48;7.22;;;2.67;;
51664;SDS011;37751;52.408;12.536;2022-07-04T03:17:15;4.20;;;3.28;;
51664;SDS011;37751;52.408;12.536;2022-07-04T03:19:42;8.35;;;3.22;;
51664;SDS011;37751;52.408;12.536;2022-07-04T03:22:09;4.78;;;2.55;;
51664;SDS011;37751;52.408;12.536;2022-07-04T03:24:35;3.67;;;2.60;;
51664;SDS011;37751;52.408;12.536;2022-07-04T03:27:02;7.53;;;2.85;;
51664;SDS011;37751;52.408;12.536;2022-07-04T03:29:29;5.90;;;2.83;;
51664;SDS011;37751;52.408;12.536;2022-07-04T03:31:56;7.72;;;2.83;;
51664;SDS011;37751;52.408;12.536;2022-07-04T03:34:23;4.15;;;2.58;;
51664;SDS011;37751;52.408;12.536;2022-07-04T03:36:50;9.52;;;3.00;;
51664;SDS011;37751;52.408;12.536;2022-07-04T03:39:17;3.65;;;2.25;;
51664;SDS011;37751;52.408;12.536;2022-07-04T03:41:43;5.60;;;2.50;;
51664;SDS011;37751;52.408;12.536;2022-07-04T03:44:10;8.60;;;2.67;;
51664;SDS011;37751;52.408;12.536;2022-07-04T03:46:37;11.00;;;2.72;;
51664;SDS011;37751;52.408;12.536;2022-07-04T03:49:04;3.20;;;2.40;;
51664;SDS011;37751;52.408;12.536;2022-07-04T03:51:31;9.77;;;2.25;;
51664;SDS011;37751;52.408;12.536;2022-07-04T03:53:58;3.50;;;2.22;;
51664;SDS011;37751;52.408;12.536;2022-07-04T03:56:25;2.72;;;2.30;;
51664;SDS011;37751;52.408;12.536;2022-07-04T03:58:52;3.00;;;2.00;;
51664;SDS011;37751;52.408;12.536;2022-07-04T04:01:18;4.50;;;1.77;;
51664;SDS011;37751;52.408;12.536;2022-07-04T04:03:45;4.00;;;2.28;;
51664;SDS011;37751;52.408;12.536;2022-07-04T04:06:31;2.38;;;1.83;;
51664;SDS011;37751;52.408;12.536;2022-07-04T04:08:58;3.08;;;1.80;;
51664;SDS011;37751;52.408;12.536;2022-07-04T04:11:25;1.88;;;1.75;;
51664;SDS011;37751;52.408;12.536;2022-07-04T04:13:52;3.13;;;1.70;;
51664;SDS011;37751;52.408;12.536;2022-07-04T04:16:19;3.30;;;1.85;;
51664;SDS011;37751;52.408;12.536;2022-07-04T04:18:45;4.60;;;1.75;;
51664;SDS011;37751;52.408;12.536;2022-07-04T04:21:12;4.45;;;2.35;;
51664;SDS011;37751;52.408;12.536;2022-07-04T04:23:39;2.60;;;1.77;;
51664;SDS011;37751;52.408;12.536;2022-07-04T04:26:06;1.98;;;1.77;;
51664;SDS011;37751;52.408;12.536;2022-07-04T04:28:33;5.78;;;2.22;;
51664;SDS011;37751;52.408;12.536;2022-07-04T04:31:00;3.65;;;1.85;;
51664;SDS011;37751;52.408;12.536;2022-07-04T04:33:26;3.88;;;1.92;;
51664;SDS011;37751;52.408;12.536;2022-07-04T04:35:53;2.97;;;2.13;;
51664;SDS011;37751;52.408;12.536;2022-07-04T04:38:20;3.78;;;1.85;;
51664;SDS011;37751;52.408;12.536;2022-07-04T04:40:47;5.75;;;2.42;;
51664;SDS011;37751;52.408;12.536;2022-07-04T04:43:14;3.90;;;2.30;;
51664;SDS011;37751;52.408;12.536;2022-07-04T04:45:40;5.20;;;2.22;;
51664;SDS011;37751;52.408;12.536;2022-07-04T04:48:07;3.45;;;1.98;;
51664;SDS011;37751;52.408;12.536;2022-07-04T04:50:34;3.22;;;1.88;;
51664;SDS011;37751;52.408;12.536;2022-07-04T04:53:01;7.65;;;2.20;;
51664;SDS011;37751;52.408;12.536;2022-07-04T04:55:28;4.93;;;2.05;;
51664;SDS011;37751;52.408;12.536;2022-07-04T04:57:55;5.43;;;2.22;;
51664;SDS011;37751;52.408;12.536;2022-07-04T05:00:22;4.72;;;2.13;;
51664;SDS011;37751;52.408;12.536;2022-07-04T05:02:49;3.40;;;2.10;;
51664;SDS011;37751;52.408;12.536;2022-07-04T05:05:16;3.33;;;1.58;;
51664;SDS011;37751;52.408;12.536;2022-07-04T05:07:42;7.20;;;2.33;;
51664;SDS011;37751;52.408;12.536;2022-07-04T05:10:09;7.22;;;2.33;;
51664;SDS011;37751;52.408;12.536;2022-07-04T05:12:36;5.50;;;1.95;;
51664;SDS011;37751;52.408;12.536;2022-07-04T05:15:05;4.65;;;2.00;;
51664;SDS011;37751;52.408;12.536;2022-07-04T05:17:33;6.70;;;2.35;;
51664;SDS011;37751;52.408;12.536;2022-07-04T05:20:00;3.55;;;2.03;;
51664;SDS011;37751;52.408;12.536;2022-07-04T05:22:27;3.20;;;1.98;;
51664;SDS011;37751;52.408;12.536;2022-07-04T05:24:54;2.90;;;2.00;;
51664;SDS011;37751;52.408;12.536;2022-07-04T05:27:21;4.90;;;2.38;;
51664;SDS011;37751;52.408;12.536;2022-07-04T05:29:48;3.78;;;2.03;;
51664;SDS011;37751;52.408;12.536;2022-07-04T05:32:20;2.78;;;1.65;;
51664;SDS011;37751;52.408;12.536;2022-07-04T05:34:47;8.25;;;2.63;;
51664;SDS011;37751;52.408;12.536;2022-07-04T05:37:13;4.00;;;1.67;;
51664;SDS011;37751;52.408;12.536;2022-07-04T05:39:40;3.85;;;1.83;;
51664;SDS011;37751;52.408;12.536;2022-07-04T05:42:07;4.25;;;1.60;;
51664;SDS011;37751;52.408;12.536;2022-07-04T05:44:34;3.03;;;1.10;;
51664;SDS011;37751;52.408;12.536;2022-07-04T05:47:01;3.20;;;1.45;;
51664;SDS011;37751;52.408;12.536;2022-07-04T05:49:28;5.13;;;1.40;;
51664;SDS011;37751;52.408;12.536;2022-07-04T05:51:54;8.18;;;1.40;;
51664;SDS011;37751;52.408;12.536;2022-07-04T05:54:21;4.10;;;1.95;;
51664;SDS011;37751;52.408;12.536;2022-07-04T05:56:48;6.78;;;1.70;;
51664;SDS011;37751;52.408;12.536;2022-07-04T05:59:15;5.03;;;1.52;;
51664;SDS011;37751;52.408;12.536;2022-07-04T06:01:42;4.38;;;1.48;;
51664;SDS011;37751;52.408;12.536;2022-07-04T06:04:09;4.05;;;1.13;;
51664;SDS011;37751;52.408;12.536;2022-07-04T06:06:35;2.15;;;1.38;;
51664;SDS011;37751;52.408;12.536;2022-07-04T06:09:02;7.10;;;1.55;;
51664;SDS011;37751;52.408;12.536;2022-07-04T06:11:30;4.85;;;2.22;;
51664;SDS011;37751;52.408;12.536;2022-07-04T06:13:56;5.72;;;2.03;;
51664;SDS011;37751;52.408;12.536;2022-07-04T06:16:23;5.28;;;1.92;;
51664;SDS011;37751;52.408;12.536;2022-07-04T06:18:50;4.07;;;1.67;;
51664;SDS011;37751;52.408;12.536;2022-07-04T06:21:17;3.00;;;1.90;;
51664;SDS011;37751;52.408;12.536;2022-07-04T06:23:44;4.20;;;2.17;;
51664;SDS011;37751;52.408;12.536;2022-07-04T06:26:10;7.05;;;2.60;;
51664;SDS011;37751;52.408;12.536;2022-07-04T06:28:37;3.22;;;1.50;;
51664;SDS011;37751;52.408;12.536;2022-07-04T06:31:13;5.10;;;1.52;;
51664;SDS011;37751;52.408;12.536;2022-07-04T06:33:41;6.95;;;2.08;;
51664;SDS011;37751;52.408;12.536;2022-07-04T06:36:27;3.10;;;1.90;;
51664;SDS011;37751;52.408;12.536;2022-07-04T06:38:55;4.07;;;1.42;;
51664;SDS011;37751;52.408;12.536;2022-07-04T06:41:22;6.50;;;1.95;;
51664;SDS011;37751;52.408;12.536;2022-07-04T06:43:49;3.28;;;1.92;;
51664;SDS011;37751;52.408;12.536;2022-07-04T06:46:16;4.22;;;1.50;;
51664;SDS011;37751;52.408;12.536;2022-07-04T06:48:43;6.20;;;1.65;;
51664;SDS011;37751;52.408;12.536;2022-07-04T06:51:09;4.43;;;1.48;;
51664;SDS011;37751;52.408;12.536;2022-07-04T06:53:37;5.53;;;1.77;;
51664;SDS011;37751;52.408;12.536;2022-07-04T06:56:04;4.03;;;1.40;;
51664;SDS011;37751;52.408;12.536;2022-07-04T06:58:31;6.53;;;1.10;;
51664;SDS011;37751;52.408;12.536;2022-07-04T07:00:58;7.82;;;1.20;;
51664;SDS011;37751;52.408;12.536;2022-07-04T07:03:25;6.10;;;1.10;;
51664;SDS011;37751;52.408;12.536;2022-07-04T07:05:53;4.70;;;1.17;;
51664;SDS011;37751;52.408;12.536;2022-07-04T07:08:26;6.07;;;1.25;;
51664;SDS011;37751;52.408;12.536;2022-07-04T07:10:54;2.28;;;1.10;;
51664;SDS011;37751;52.408;12.536;2022-07-04T07:13:22;3.45;;;1.30;;
51664;SDS011;37751;52.408;12.536;2022-07-04T07:15:49;6.18;;;1.42;;
51664;SDS011;37751;52.408;12.536;2022-07-04T07:18:16;5.82;;;1.48;;
51664;SDS011;37751;52.408;12.536;2022-07-04T07:20:43;4.68;;;1.58;;
51664;SDS011;37751;52.408;12.536;2022-07-04T07:23:10;4.78;;;1.38;;
51664;SDS011;37751;52.408;12.536;2022-07-04T07:25:37;9.70;;;1.67;;
51664;SDS011;37751;52.408;12.536;2022-07-04T07:28:03;5.47;;;1.40;;
51664;SDS011;37751;52.408;12.536;2022-07-04T07:30:30;4.45;;;1.17;;
51664;SDS011;37751;52.408;12.536;2022-07-04T07:32:57;4.10;;;1.20;;
51664;SDS011;37751;52.408;12.536;2022-07-04T07:35:24;11.32;;;1.42;;
51664;SDS011;37751;52.408;12.536;2022-07-04T07:37:51;5.13;;;1.02;;
51664;SDS011;37751;52.408;12.536;2022-07-04T07:40:18;4.35;;;1.13;;
51664;SDS011;37751;52.408;12.536;2022-07-04T07:42:44;5.80;;;1.08;;
51664;SDS011;37751;52.408;12.536;2022-07-04T07:45:11;3.88;;;1.08;;
51664;SDS011;37751;52.408;12.536;2022-07-04T07:47:38;1.58;;;0.85;;
51664;SDS011;37751;52.408;12.536;2022-07-04T07:50:05;5.07;;;1.50;;
51664;SDS011;37751;52.408;12.536;2022-07-04T07:52:32;4.82;;;1.08;;
51664;SDS011;37751;52.408;12.536;2022-07-04T07:54:59;4.50;;;0.80;;
51664;SDS011;37751;52.408;12.536;2022-07-04T07:57:27;7.10;;;0.90;;
51664;SDS011;37751;52.408;12.536;2022-07-04T07:59:55;4.32;;;0.70;;
51664;SDS011;37751;52.408;12.536;2022-07-04T08:02:23;4.60;;;0.88;;
51664;SDS011;37751;52.408;12.536;2022-07-04T08:05:11;3.25;;;0.75;;
51664;SDS011;37751;52.408;12.536;2022-07-04T08:07:38;2.05;;;0.80;;
51664;SDS011;37751;52.408;12.536;2022-07-04T08:10:06;1.63;;;0.88;;
51664;SDS011;37751;52.408;12.536;2022-07-04T08:12:34;2.95;;;0.80;;
51664;SDS011;37751;52.408;12.536;2022-07-04T08:15:01;2.83;;;0.60;;
51664;SDS011;37751;52.408;12.536;2022-07-04T08:17:33;1.23;;;0.52;;
51664;SDS011;37751;52.408;12.536;2022-07-04T08:20:01;3.53;;;0.70;;
51664;SDS011;37751;52.408;12.536;2022-07-04T08:22:32;1.35;;;0.70;;
51664;SDS011;37751;52.408;12.536;2022-07-04T08:24:59;6.05;;;0.80;;
51664;SDS011;37751;52.408;12.536;2022-07-04T08:27:26;4.15;;;0.63;;
51664;SDS011;37751;52.408;12.536;2022-07-04T08:29:59;3.67;;;0.90;;
51664;SDS011;37751;52.408;12.536;2022-07-04T08:32:26;3.65;;;0.95;;
51664;SDS011;37751;52.408;12.536;2022-07-04T08:34:53;2.28;;;0.70;;
51664;SDS011;37751;52.408;12.536;2022-07-04T08:37:23;3.90;;;0.60;;
51664;SDS011;37751;52.408;12.536;2022-07-04T08:39:50;5.13;;;0.77;;
51664;SDS011;37751;52.408;12.536;2022-07-04T08:42:18;2.85;;;0.70;;
51664;SDS011;37751;52.408;12.536;2022-07-04T08:44:49;2.45;;;0.85;;
51664;SDS011;37751;52.408;12.536;2022-07-04T08:47:20;5.68;;;1.20;;
51664;SDS011;37751;52.408;12.536;2022-07-04T08:52:41;7.78;;;0.80;;
51664;SDS011;37751;52.408;12.536;2022-07-04T08:55:18;3.55;;;0.85;;
51664;SDS011;37751;52.408;12.536;2022-07-04T08:58:04;2.28;;;0.50;;
51664;SDS011;37751;52.408;12.536;2022-07-04T09:00:50;3.60;;;0.70;;
51664;SDS011;37751;52.408;12.536;2022-07-04T09:03:21;2.47;;;0.85;;
51664;SDS011;37751;52.408;12.536;2022-07-04T09:05:49;5.85;;;1.42;;
51664;SDS011;37751;52.408;12.536;2022-07-04T09:08:16;5.95;;;2.17;;
51664;SDS011;37751;52.408;12.536;2022-07-04T09:10:43;1.42;;;0.75;;
51664;SDS011;37751;52.408;12.536;2022-07-04T09:13:11;1.63;;;0.60;;
51664;SDS011;37751;52.408;12.536;2022-07-04T09:15:41;4.70;;;0.70;;
51664;SDS011;37751;52.408;12.536;2022-07-04T09:18:35;6.05;;;0.73;;
51664;SDS011;37751;52.408;12.536;2022-07-04T09:21:04;2.10;;;0.80;;
51664;SDS011;37751;52.408;12.536;2022-07-04T09:23:38;1.52;;;0.50;;
51664;SDS011;37751;52.408;12.536;2022-07-04T09:26:17;6.05;;;0.90;;
51664;SDS011;37751;52.408;12.536;2022-07-04T09:33:53;1.20;;;0.70;;
51664;SDS011;37751;52.408;12.536;2022-07-04T09:36:31;3.15;;;0.68;;
51664;SDS011;37751;52.408;12.536;2022-07-04T09:39:16;4.05;;;1.15;;
51664;SDS011;37751;52.408;12.536;2022-07-04T09:47:00;1.42;;;0.55;;
51664;SDS011;37751;52.408;12.536;2022-07-04T09:52:47;2.60;;;0.60;;
51664;SDS011;37751;52.408;12.536;2022-07-04T10:00:46;2.60;;;0.50;;
51664;SDS011;37751;52.408;12.536;2022-07-04T10:03:21;4.15;;;0.85;;
51664;SDS011;37751;52.408;12.536;2022-07-04T10:08:40;0.90;;;0.60;;
51664;SDS011;37751;52.408;12.536;2022-07-04T10:11:09;1.23;;;0.52;;
51664;SDS011;37751;52.408;12.536;2022-07-04T10:13:44;2.63;;;0.50;;
51664;SDS011;37751;52.408;12.536;2022-07-04T10:16:12;2.42;;;0.50;;
51664;SDS011;37751;52.408;12.536;2022-07-04T10:18:42;1.75;;;0.50;;
51664;SDS011;37751;52.408;12.536;2022-07-04T10:21:09;2.08;;;0.80;;
51664;SDS011;37751;52.408;12.536;2022-07-04T10:23:38;6.70;;;0.90;;
51664;SDS011;37751;52.408;12.536;2022-07-04T10:26:05;1.70;;;0.73;;
51664;SDS011;37751;52.408;12.536;2022-07-04T10:28:32;4.43;;;1.08;;
51664;SDS011;37751;52.408;12.536;2022-07-04T10:31:00;1.30;;;0.50;;
51664;SDS011;37751;52.408;12.536;2022-07-04T10:33:28;2.08;;;0.50;;
51664;SDS011;37751;52.408;12.536;2022-07-04T10:36:13;5.85;;;1.15;;
51664;SDS011;37751;52.408;12.536;2022-07-04T10:38:52;3.25;;;1.00;;
51664;SDS011;37751;52.408;12.536;2022-07-04T10:41:28;4.82;;;1.10;;
51664;SDS011;37751;52.408;12.536;2022-07-04T10:46:35;2.90;;;0.73;;
51664;SDS011;37751;52.408;12.536;2022-07-04T10:51:42;3.13;;;0.60;;
51664;SDS011;37751;52.408;12.536;2022-07-04T10:56:43;3.22;;;0.85;;
51664;SDS011;37751;52.408;12.536;2022-07-04T10:59:13;5.78;;;1.30;;
51664;SDS011;37751;52.408;12.536;2022-07-04T11:17:51;2.28;;;0.57;;
51664;SDS011;37751;52.408;12.536;2022-07-04T11:20:20;2.72;;;0.70;;
51664;SDS011;37751;52.408;12.536;2022-07-04T11:22:48;6.28;;;1.35;;
51664;SDS011;37751;52.408;12.536;2022-07-04T11:25:15;6.78;;;0.80;;
51664;SDS011;37751;52.408;12.536;2022-07-04T11:27:42;2.25;;;0.60;;
51664;SDS011;37751;52.408;12.536;2022-07-04T11:30:09;2.72;;;1.08;;
51664;SDS011;37751;52.408;12.536;2022-07-04T11:32:41;6.30;;;1.40;;
51664;SDS011;37751;52.408;12.536;2022-07-04T11:35:08;3.83;;;0.68;;
51664;SDS011;37751;52.408;12.536;2022-07-04T11:37:35;2.00;;;0.73;;
51664;SDS011;37751;52.408;12.536;2022-07-04T11:40:02;1.70;;;0.75;;
51664;SDS011;37751;52.408;12.536;2022-07-04T11:43:03;1.67;;;0.60;;
51664;SDS011;37751;52.408;12.536;2022-07-04T11:45:50;2.58;;;1.20;;
51664;SDS011;37751;52.408;12.536;2022-07-04T11:48:26;2.38;;;0.73;;
51664;SDS011;37751;52.408;12.536;2022-07-04T11:50:53;2.42;;;0.77;;
51664;SDS011;37751;52.408;12.536;2022-07-04T11:53:21;1.02;;;0.52;;
51664;SDS011;37751;52.408;12.536;2022-07-04T11:55:54;2.88;;;0.70;;
51664;SDS011;37751;52.408;12.536;2022-07-04T11:58:23;7.38;;;0.68;;
51664;SDS011;37751;52.408;12.536;2022-07-04T12:00:50;4.45;;;1.10;;
51664;SDS011;37751;52.408;12.536;2022-07-04T12:03:18;2.00;;;0.60;;
51664;SDS011;37751;52.408;12.536;2022-07-04T12:05:45;10.32;;;0.60;;
51664;SDS011;37751;52.408;12.536;2022-07-04T12:08:12;0.57;;;0.50;;
51664;SDS011;37751;52.408;12.536;2022-07-04T12:10:54;5.43;;;0.68;;
51664;SDS011;37751;52.408;12.536;2022-07-04T12:13:21;3.75;;;0.70;;
51664;SDS011;37751;52.408;12.536;2022-07-04T12:15:49;1.15;;;0.60;;
51664;SDS011;37751;52.408;12.536;2022-07-04T12:20:54;1.10;;;0.60;;
51664;SDS011;37751;52.408;12.536;2022-07-04T12:23:36;6.80;;;0.82;;
51664;SDS011;37751;52.408;12.536;2022-07-04T12:26:23;1.80;;;0.60;;
51664;SDS011;37751;52.408;12.536;2022-07-04T12:28:50;1.42;;;0.60;;
51664;SDS011;37751;52.408;12.536;2022-07-04T12:31:17;1.88;;;0.80;;
51664;SDS011;37751;52.408;12.536;2022-07-04T12:33:53;9.90;;;2.63;;
51664;SDS011;37751;52.408;12.536;2022-07-04T12:36:21;11.57;;;1.42;;
51664;SDS011;37751;52.408;12.536;2022-07-04T12:38:49;5.25;;;0.85;;
51664;SDS011;37751;52.408;12.536;2022-07-04T12:41:16;2.67;;;0.60;;
51664;SDS011;37751;52.408;12.536;2022-07-04T12:43:48;8.23;;;2.40;;
51664;SDS011;37751;52.408;12.536;2022-07-04T12:48:50;1.35;;;0.57;;
51664;SDS011;37751;52.408;12.536;2022-07-04T12:51:19;1.25;;;0.68;;
51664;SDS011;37751;52.408;12.536;2022-07-04T12:53:58;1.25;;;0.55;;
51664;SDS011;37751;52.408;12.536;2022-07-04T12:56:32;4.82;;;0.68;;
51664;SDS011;37751;52.408;12.536;2022-07-04T12:59:10;5.43;;;0.70;;
51664;SDS011;37751;52.408;12.536;2022-07-04T13:01:41;3.00;;;0.73;;
51664;SDS011;37751;52.408;12.536;2022-07-04T13:04:09;1.60;;;0.60;;
51664;SDS011;37751;52.408;12.536;2022-07-04T13:06:37;1.85;;;0.60;;
51664;SDS011;37751;52.408;12.536;2022-07-04T13:09:06;1.85;;;0.73;;
51664;SDS011;37751;52.408;12.536;2022-07-04T13:11:36;4.68;;;0.60;;
51664;SDS011;37751;52.408;12.536;2022-07-04T13:14:22;2.90;;;0.40;;
51664;SDS011;37751;52.408;12.536;2022-07-04T13:16:49;1.58;;;0.60;;
51664;SDS011;37751;52.408;12.536;2022-07-04T13:19:16;1.15;;;0.75;;
51664;SDS011;37751;52.408;12.536;2022-07-04T13:21:43;2.38;;;0.70;;
51664;SDS011;37751;52.408;12.536;2022-07-04T13:24:11;1.45;;;0.68;;
51664;SDS011;37751;52.408;12.536;2022-07-04T13:26:38;0.80;;;0.40;;
51664;SDS011;37751;52.408;12.536;2022-07-04T13:29:06;3.00;;;0.90;;
51664;SDS011;37751;52.408;12.536;2022-07-04T13:31:37;4.38;;;0.73;;
51664;SDS011;37751;52.408;12.536;2022-07-04T13:34:05;5.78;;;0.63;;
51664;SDS011;37751;52.408;12.536;2022-07-04T13:36:31;2.25;;;0.70;;
51664;SDS011;37751;52.408;12.536;2022-07-04T13:38:58;1.13;;;0.50;;
51664;SDS011;37751;52.408;12.536;2022-07-04T13:41:31;2.67;;;0.82;;
51664;SDS011;37751;52.408;12.536;2022-07-04T13:44:00;2.20;;;0.50;;
51664;SDS011;37751;52.408;12.536;2022-07-04T13:46:28;2.83;;;0.73;;
51664;SDS011;37751;52.408;12.536;2022-07-04T13:48:55;0.77;;;0.55;;
51664;SDS011;37751;52.408;12.536;2022-07-04T13:51:22;0.98;;;0.50;;
51664;SDS011;37751;52.408;12.536;2022-07-04T13:53:49;1.60;;;0.60;;
51664;SDS011;37751;52.408;12.536;2022-07-04T13:56:16;1.95;;;0.63;;
51664;SDS011;37751;52.408;12.536;2022-07-04T13:58:44;2.85;;;0.50;;
51664;SDS011;37751;52.408;12.536;2022-07-04T14:01:13;1.50;;;0.40;;
51664;SDS011;37751;52.408;12.536;2022-07-04T14:03:46;1.75;;;0.70;;
51664;SDS011;37751;52.408;12.536;2022-07-04T14:06:15;3.38;;;0.60;;
51664;SDS011;37751;52.408;12.536;2022-07-04T14:08:43;0.43;;;0.40;;
51664;SDS011;37751;52.408;12.536;2022-07-04T14:11:10;1.45;;;0.60;;
51664;SDS011;37751;52.408;12.536;2022-07-04T14:13:37;1.77;;;0.47;;
51664;SDS011;37751;52.408;12.536;2022-07-04T14:16:05;6.03;;;0.93;;
51664;SDS011;37751;52.408;12.536;2022-07-04T14:18:33;1.33;;;0.60;;
51664;SDS011;37751;52.408;12.536;2022-07-04T14:21:00;2.63;;;0.43;;
51664;SDS011;37751;52.408;12.536;2022-07-04T14:23:27;0.82;;;0.38;;
51664;SDS011;37751;52.408;12.536;2022-07-04T14:26:13;4.00;;;0.60;;
51664;SDS011;37751;52.408;12.536;2022-07-04T14:28:42;5.72;;;0.82;;
51664;SDS011;37751;52.408;12.536;2022-07-04T14:31:12;3.53;;;1.05;;
51664;SDS011;37751;52.408;12.536;2022-07-04T14:33:39;1.65;;;0.52;;
51664;SDS011;37751;52.408;12.536;2022-07-04T14:36:06;1.63;;;0.50;;
51664;SDS011;37751;52.408;12.536;2022-07-04T14:38:34;1.75;;;0.68;;
51664;SDS011;37751;52.408;12.536;2022-07-04T14:41:01;3.97;;;0.75;;
51664;SDS011;37751;52.408;12.536;2022-07-04T14:43:41;1.70;;;0.63;;
51664;SDS011;37751;52.408;12.536;2022-07-04T14:46:10;1.25;;;0.47;;
51664;SDS011;37751;52.408;12.536;2022-07-04T14:48:37;2.95;;;0.50;;
51664;SDS011;37751;52.408;12.536;2022-07-04T14:51:05;0.93;;;0.57;;
51664;SDS011;37751;52.408;12.536;2022-07-04T14:53:32;1.67;;;0.70;;
51664;SDS011;37751;52.408;12.536;2022-07-04T14:55:59;1.90;;;0.70;;
51664;SDS011;37751;52.408;12.536;2022-07-04T14:58:26;2.40;;;0.80;;
51664;SDS011;37751;52.408;12.536;2022-07-04T15:00:54;1.60;;;0.50;;
51664;SDS011;37751;52.408;12.536;2022-07-04T15:03:22;5.15;;;0.60;;
51664;SDS011;37751;52.408;12.536;2022-07-04T15:05:49;0.95;;;0.70;;
51664;SDS011;37751;52.408;12.536;2022-07-04T15:08:16;2.63;;;0.80;;
51664;SDS011;37751;52.408;12.536;2022-07-04T15:10:43;2.13;;;0.52;;
51664;SDS011;37751;52.408;12.536;2022-07-04T15:13:26;3.78;;;0.65;;
51664;SDS011;37751;52.408;12.536;2022-07-04T15:15:54;0.40;;;0.40;;
51664;SDS011;37751;52.408;12.536;2022-07-04T15:18:41;0.73;;;0.43;;
51664;SDS011;37751;52.408;12.536;2022-07-04T15:21:08;1.33;;;0.38;;
51664;SDS011;37751;52.408;12.536;2022-07-04T15:23:53;0.65;;;0.40;;
51664;SDS011;37751;52.408;12.536;2022-07-04T15:26:48;1.70;;;0.40;;
51664;SDS011;37751;52.408;12.536;2022-07-04T15:29:18;5.38;;;0.60;;
51664;SDS011;37751;52.408;12.536;2022-07-04T15:31:48;3.17;;;0.50;;
51664;SDS011;37751;52.408;12.536;2022-07-04T15:34:16;1.67;;;0.55;;
51664;SDS011;37751;52.408;12.536;2022-07-04T15:36:44;0.65;;;0.40;;